Time;durP1;ratioP1;P1;durP2;ratioP2;P2;SDS_P1;SDS_P2;PMS_P1;PMS_P2;Temp;Humidity;BMP_temperature;BMP_pressure;BME280_temperature;BME280_humidity;BME280_pressure;Samples;Min_cycle;Max_cycle;Signal;HPM_P1;HPM_P2
2022/01/12 00:01:29;;;;;;;25.30;9.93;;;;;;;-0.55;51.64;101364.78;4435653;32;34757;-78
2022/01/12 00:03:59;;;;;;;27.90;11.57;;;;;;;-0.34;50.95;101361.59;4398138;32;31818;-79
2022/01/12 00:06:28;;;;;;;24.73;10.57;;;;;;;-0.31;50.67;101371.31;4435499;32;34586;-78
2022/01/12 00:09:04;;;;;;;17.67;8.60;;;;;;;-0.51;51.30;101372.59;4422781;32;32800;-78
2022/01/12 00:11:36;;;;;;;17.27;9.50;;;;;;;-0.89;51.91;101357.97;4411747;32;32269;-77
2022/01/12 00:14:04;;;;;;;25.15;10.32;;;;;;;-0.43;50.86;101364.88;4410526;32;33420;-78
2022/01/12 00:16:33;;;;;;;18.17;8.73;;;;;;;-0.35;50.73;101377.88;4423318;32;33967;-78
2022/01/12 00:19:03;;;;;;;19.33;8.40;;;;;;;-0.39;50.79;101361.03;4410599;32;35152;-77
2022/01/12 00:21:31;;;;;;;19.40;10.07;;;;;;;-0.28;50.64;101362.16;4410958;32;34574;-77
2022/01/12 00:23:59;;;;;;;20.43;8.93;;;;;;;-0.37;50.75;101369.03;4410743;32;34153;-78
2022/01/12 00:34:37;;;;;;;15.90;8.15;;;;;;;-0.35;50.51;101380.56;4410496;32;31993;-78
2022/01/12 00:37:05;;;;;;;16.85;7.78;;;;;;;-0.60;50.99;101378.56;4422877;32;32301;-78
2022/01/12 00:39:35;;;;;;;17.17;7.10;;;;;;;-0.51;50.84;101380.69;4410405;32;32854;-77
2022/01/12 00:42:09;;;;;;;16.73;7.30;;;;;;;-0.65;50.92;101383.41;4434907;32;34111;-77
2022/01/12 00:44:44;;;;;;;15.27;7.00;;;;;;;-0.70;51.19;101388.22;4435056;32;34257;-77
2022/01/12 00:47:12;;;;;;;16.40;6.90;;;;;;;-0.86;51.12;101398.19;4434637;32;33869;-80
2022/01/12 00:49:43;;;;;;;18.83;7.37;;;;;;;-0.80;51.55;101400.53;4410206;32;32830;-77
2022/01/12 00:52:15;;;;;;;16.00;7.87;;;;;;;-0.72;51.07;101401.78;4422641;32;33602;-78
2022/01/12 00:54:45;;;;;;;18.93;7.80;;;;;;;-0.58;50.81;101392.81;4434997;32;33996;-78
2022/01/12 00:57:13;;;;;;;15.97;7.13;;;;;;;-0.68;51.02;101403.34;4435397;32;33958;-78
2022/01/12 00:59:43;;;;;;;17.70;7.80;;;;;;;-0.81;51.57;101401.47;4435699;32;34172;-78
2022/01/12 01:02:12;;;;;;;14.07;7.43;;;;;;;-0.64;50.98;101397.72;4435317;32;34334;-77
2022/01/12 01:04:40;;;;;;;18.20;7.00;;;;;;;-0.61;50.86;101395.69;4435714;32;34174;-77
2022/01/12 01:07:10;;;;;;;14.63;7.18;;;;;;;-0.73;50.79;101393.78;4424174;32;33991;-77
2022/01/12 01:09:44;;;;;;;16.80;7.60;;;;;;;-0.77;51.13;101392.25;4410123;32;35186;-78
2022/01/12 01:12:15;;;;;;;18.07;8.07;;;;;;;-0.78;50.87;101386.00;4421862;32;33796;-77
2022/01/12 01:15:03;;;;;;;18.40;8.10;;;;;;;-0.97;51.51;101395.28;4422752;32;32758;-78
2022/01/12 01:25:52;;;;;;;15.50;7.60;;;;;;;-0.80;50.85;101392.44;4420754;32;31760;-77
2022/01/12 01:28:20;;;;;;;15.77;7.67;;;;;;;-0.93;51.14;101397.72;4411107;32;34076;-78
2022/01/12 01:30:48;;;;;;;16.40;7.83;;;;;;;-1.23;52.14;101400.44;4436117;32;34792;-78
2022/01/12 01:33:23;;;;;;;17.75;7.12;;;;;;;-0.98;51.75;101405.22;4411255;32;34016;-77
2022/01/12 01:35:55;;;;;;;17.60;7.60;;;;;;;-1.21;52.28;101406.59;4410812;32;34221;-77
2022/01/12 01:38:25;;;;;;;16.43;7.20;;;;;;;-0.98;51.63;101404.34;4424610;32;33537;-76
2022/01/12 01:40:53;;;;;;;18.67;7.93;;;;;;;-1.13;51.74;101404.31;4423522;32;34091;-77
2022/01/12 01:54:36;;;;;;;19.17;9.43;;;;;;;-0.92;51.59;101414.75;4412128;32;32416;-77
2022/01/12 01:57:04;;;;;;;18.87;8.98;;;;;;;-0.71;51.28;101418.81;4410345;32;34144;-78
2022/01/12 01:59:33;;;;;;;19.93;9.57;;;;;;;-0.72;51.26;101427.88;4409963;32;34566;-78
2022/01/12 02:02:00;;;;;;;19.57;9.10;;;;;;;-0.93;52.05;101426.50;4422611;32;33754;-78
2022/01/12 02:04:35;;;;;;;20.30;8.87;;;;;;;-0.94;51.98;101422.94;4434877;32;34087;-77
2022/01/12 02:07:03;;;;;;;19.03;8.60;;;;;;;-0.81;51.59;101423.06;4434733;32;34159;-78
2022/01/12 02:09:30;;;;;;;24.07;10.07;;;;;;;-0.88;51.59;101419.00;4434956;32;33888;-78
2022/01/12 02:12:02;;;;;;;21.47;8.37;;;;;;;-0.84;51.45;101420.53;4409868;32;34339;-78
2022/01/12 02:14:32;;;;;;;18.25;8.82;;;;;;;-0.78;51.21;101428.25;4422010;32;34526;-78
2022/01/12 02:17:06;;;;;;;22.30;8.63;;;;;;;-0.67;50.82;101418.53;4409048;32;33563;-78
2022/01/12 02:41:30;;;;;;;18.40;9.20;;;;;;;-1.10;51.67;101427.50;4424900;32;33752;-78
2022/01/12 02:55:07;;;;;;;20.07;8.83;;;;;;;-1.07;51.29;101432.69;4401315;32;32919;-78
2022/01/12 02:57:36;;;;;;;19.37;9.37;;;;;;;-1.43;52.58;101433.94;4425189;32;34101;-78
2022/01/12 03:00:08;;;;;;;22.07;11.33;;;;;;;-1.26;52.66;101441.00;4424021;32;32879;-78
2022/01/12 03:02:41;;;;;;;24.23;10.90;;;;;;;-1.33;53.12;101437.84;4423646;32;32379;-79
2022/01/12 03:07:42;;;;;;;22.80;10.57;;;;;;;-1.41;53.53;101439.25;4411072;32;32467;-78
2022/01/12 03:10:12;;;;;;;23.03;10.73;;;;;;;-1.26;53.39;101443.69;4436233;32;34014;-78
2022/01/12 03:12:43;;;;;;;23.13;10.70;;;;;;;-1.33;53.37;101439.66;4411279;32;33706;-78
2022/01/12 03:15:12;;;;;;;26.63;9.77;;;;;;;-1.14;52.84;101442.97;4411238;32;34655;-78
2022/01/12 03:17:40;;;;;;;22.40;10.10;;;;;;;-1.37;53.19;101446.19;4423384;32;33451;-79
2022/01/12 03:20:11;;;;;;;25.03;11.37;;;;;;;-1.27;53.01;101441.09;4436365;32;33683;-79
2022/01/12 03:22:41;;;;;;;27.37;10.80;;;;;;;-1.28;52.80;101439.34;4410736;32;32191;-78
2022/01/12 03:25:10;;;;;;;24.07;10.63;;;;;;;-0.98;52.16;101439.38;4423810;32;35287;-78
2022/01/12 03:27:43;;;;;;;23.80;11.37;;;;;;;-1.22;52.49;101439.88;4410989;32;34008;-78
2022/01/12 03:30:14;;;;;;;26.30;12.70;;;;;;;-1.23;52.46;101434.56;4436003;32;34217;-78
2022/01/12 03:32:47;;;;;;;22.33;10.23;;;;;;;-1.44;53.28;101455.56;4411403;32;34541;-78
2022/01/12 03:35:35;;;;;;;21.23;10.77;;;;;;;-1.40;53.37;101451.75;4435663;32;35161;-79
2022/01/12 03:38:21;;;;;;;21.05;10.93;;;;;;;-1.38;53.43;101444.44;4424497;32;34047;-79
2022/01/12 03:40:50;;;;;;;24.63;10.05;;;;;;;-1.35;53.25;101446.97;4434303;32;33219;-79
2022/01/12 03:43:18;;;;;;;25.47;11.27;;;;;;;-1.51;53.70;101452.38;4410152;32;33007;-79
2022/01/12 03:45:47;;;;;;;24.53;10.80;;;;;;;-1.53;54.21;101450.72;4410802;32;35328;-79
2022/01/12 03:48:15;;;;;;;22.60;11.53;;;;;;;-1.41;54.06;101444.63;4410571;32;33618;-79
2022/01/12 03:50:48;;;;;;;24.63;11.80;;;;;;;-1.48;54.52;101432.47;4423089;32;31852;-78
2022/01/12 03:53:16;;;;;;;26.97;11.63;;;;;;;-1.34;54.33;101443.31;4410726;32;33991;-79
2022/01/12 03:55:44;;;;;;;24.03;11.43;;;;;;;-1.41;54.48;101445.50;4410779;32;34246;-79
2022/01/12 03:58:14;;;;;;;25.50;12.43;;;;;;;-1.26;54.34;101446.38;4410808;32;34819;-78
2022/01/12 04:00:42;;;;;;;27.57;13.20;;;;;;;-1.30;54.44;101442.19;4410915;32;33257;-78
2022/01/12 04:03:12;;;;;;;24.27;11.40;;;;;;;-1.51;55.15;101444.28;4410808;32;33727;-78
2022/01/12 04:08:19;;;;;;;25.90;11.60;;;;;;;-1.25;54.68;101456.22;4423015;32;34526;-78
2022/01/12 04:08:29;;;;;;;31.80;11.37;;;;;;;-1.29;54.80;101460.03;4400332;32;33499;-78
2022/01/12 04:11:01;;;;;;;22.70;11.40;;;;;;;-1.30;54.86;101455.66;4423161;32;33459;-79
2022/01/12 04:13:31;;;;;;;20.57;10.30;;;;;;;-1.55;55.46;101455.31;4410489;32;33792;-79
2022/01/12 04:16:03;;;;;;;25.53;10.50;;;;;;;-1.63;55.76;101449.50;4410835;32;34560;-79
2022/01/12 04:18:32;;;;;;;24.57;11.30;;;;;;;-1.49;55.32;101446.91;4410517;32;33985;-79
2022/01/12 04:21:07;;;;;;;23.83;11.57;;;;;;;-1.40;55.29;101451.75;4410215;32;33459;-78
2022/01/12 04:23:37;;;;;;;24.20;11.03;;;;;;;-1.32;54.77;101446.78;4435425;32;34487;-78
2022/01/12 04:26:10;;;;;;;24.30;11.53;;;;;;;-1.40;54.49;101444.53;4410318;32;33949;-78
2022/01/12 04:28:42;;;;;;;22.80;11.23;;;;;;;-1.31;54.47;101453.91;4424205;32;34718;-79
2022/01/12 04:31:14;;;;;;;25.50;11.27;;;;;;;-1.50;54.61;101454.09;4410575;32;33182;-78
2022/01/12 04:33:45;;;;;;;24.67;11.27;;;;;;;-1.43;54.34;101450.09;4398107;32;32797;-78
2022/01/12 04:36:17;;;;;;;27.57;12.13;;;;;;;-1.45;54.50;101449.31;4423128;32;33492;-78
2022/01/12 04:38:45;;;;;;;24.93;11.43;;;;;;;-1.43;54.56;101443.84;4423251;32;34181;-78
2022/01/12 04:41:13;;;;;;;24.20;11.57;;;;;;;-1.18;53.81;101452.19;4410633;32;33532;-80
2022/01/12 04:43:45;;;;;;;27.43;12.20;;;;;;;-1.07;53.58;101463.22;4423065;32;32418;-78
2022/01/12 04:48:54;;;;;;;24.40;12.17;;;;;;;-1.42;54.17;101451.84;4422147;32;32317;-78
2022/01/12 04:51:23;;;;;;;23.00;12.33;;;;;;;-1.41;54.14;101460.78;4412311;32;34005;-78
2022/01/12 04:53:53;;;;;;;29.53;12.67;;;;;;;-1.30;54.04;101462.84;4408962;32;33084;-79
2022/01/12 04:56:21;;;;;;;23.70;12.10;;;;;;;-1.40;54.26;101463.38;4397703;32;33659;-79
2022/01/12 04:58:49;;;;;;;29.10;12.87;;;;;;;-1.48;54.37;101459.41;4422517;32;34715;-79
2022/01/12 05:01:23;;;;;;;28.33;13.40;;;;;;;-1.61;54.60;101463.75;4435383;32;34339;-79
2022/01/12 05:06:47;;;;;;;26.63;12.30;;;;;;;-1.33;53.62;101467.47;4399755;32;33638;-78
2022/01/12 05:09:42;;;;;;;27.03;12.60;;;;;;;-1.61;54.05;101474.53;4411407;32;34124;-77
2022/01/12 05:15:11;;;;;;;29.33;12.73;;;;;;;-1.66;54.77;101478.34;4399519;32;31786;-78
2022/01/12 05:17:41;;;;;;;28.63;11.73;;;;;;;-1.63;55.07;101480.00;4434370;32;35859;-77
2022/01/12 05:20:10;;;;;;;25.27;12.57;;;;;;;-1.42;54.38;101486.84;4409916;32;33159;-77
2022/01/12 05:22:40;;;;;;;22.40;11.30;;;;;;;-1.55;54.32;101485.81;4410018;32;32044;-77
2022/01/12 05:25:08;;;;;;;27.97;12.23;;;;;;;-1.63;54.59;101480.00;4422593;32;34474;-79
2022/01/12 05:27:36;;;;;;;26.57;12.23;;;;;;;-1.55;54.17;101480.41;4410433;32;35670;-80
2022/01/12 05:30:08;;;;;;;23.57;11.13;;;;;;;-1.69;54.28;101478.50;4435030;32;34886;-79
2022/01/12 05:32:36;;;;;;;25.50;11.87;;;;;;;-1.63;54.27;101490.75;4410096;32;33385;-77
2022/01/12 05:35:07;;;;;;;24.10;11.98;;;;;;;-1.64;54.58;101483.63;4422572;32;33586;-78
2022/01/12 05:37:35;;;;;;;26.47;12.27;;;;;;;-1.77;54.92;101483.47;4397106;32;34038;-78
2022/01/12 05:40:04;;;;;;;25.77;11.57;;;;;;;-1.79;54.99;101488.06;4423343;32;33879;-81
2022/01/12 05:42:35;;;;;;;26.90;11.67;;;;;;;-1.50;54.49;101477.47;4423624;32;33453;-78
2022/01/12 05:45:05;;;;;;;26.80;11.33;;;;;;;-1.75;55.32;101497.69;4422281;32;32230;-78
2022/01/12 05:50:17;;;;;;;23.80;11.73;;;;;;;-1.54;54.68;101476.78;4398305;32;32709;-78
2022/01/12 05:52:45;;;;;;;23.87;11.07;;;;;;;-1.53;54.00;101488.41;4409927;32;33096;-78
2022/01/12 05:55:14;;;;;;;24.63;12.67;;;;;;;-1.64;53.96;101482.78;4410172;32;33728;-77
2022/01/12 05:57:42;;;;;;;25.50;11.73;;;;;;;-1.76;54.29;101493.28;4410047;32;34819;-78
2022/01/12 06:00:13;;;;;;;27.67;11.90;;;;;;;-1.52;53.87;101493.72;4423050;32;34018;-77
2022/01/12 06:02:43;;;;;;;31.43;12.97;;;;;;;-1.76;54.37;101498.66;4397569;32;31871;-77
2022/01/12 06:05:18;;;;;;;23.50;10.73;;;;;;;-1.86;54.40;101500.12;4422036;32;34650;-78
2022/01/12 06:07:47;;;;;;;30.17;12.50;;;;;;;-1.65;54.15;101500.75;4410334;32;34589;-77
2022/01/12 06:10:16;;;;;;;26.77;12.60;;;;;;;-1.69;54.17;101502.72;4407637;32;32326;-77
2022/01/12 06:12:45;;;;;;;24.35;12.00;;;;;;;-1.75;60.12;101513.84;4407201;32;33023;-77
2022/01/12 06:15:24;;;;;;;28.20;12.57;;;;;;;-1.67;58.00;101516.97;4421638;32;33779;-75
2022/01/12 06:17:51;;;;;;;26.60;12.40;;;;;;;-1.24;67.54;101527.97;4420754;32;34337;-77
2022/01/12 06:20:21;;;;;;;28.03;12.13;;;;;;;-1.22;63.47;101525.19;4421388;32;32650;-77
2022/01/12 06:22:52;;;;;;;24.93;11.97;;;;;;;-1.39;59.71;101534.28;4409535;32;33966;-77
2022/01/12 06:25:22;;;;;;;29.70;13.40;;;;;;;-1.29;57.53;101531.87;4434608;32;33431;-77
2022/01/12 06:27:58;;;;;;;26.83;12.53;;;;;;;-1.40;56.63;101530.72;4421705;32;32983;-77
2022/01/12 06:32:58;;;;;;;28.57;14.40;;;;;;;-1.51;55.81;101538.53;4409274;32;34188;-77
2022/01/12 06:35:26;;;;;;;28.50;12.50;;;;;;;-1.66;56.10;101529.47;4409150;32;33354;-78
2022/01/12 06:37:54;;;;;;;25.97;12.43;;;;;;;-1.57;55.80;101538.00;4407220;32;34373;-78
2022/01/12 06:40:22;;;;;;;25.17;12.83;;;;;;;-1.55;55.70;101541.47;4408322;32;32768;-77
2022/01/12 06:42:50;;;;;;;27.73;12.80;;;;;;;-1.45;55.53;101534.63;4413779;32;34312;-77
2022/01/12 06:45:18;;;;;;;23.83;11.67;;;;;;;-1.56;55.50;101537.03;4412066;32;34360;-77
2022/01/12 06:47:46;;;;;;;25.53;11.80;;;;;;;-1.71;56.32;101553.09;4424236;32;33781;-77
2022/01/12 06:50:15;;;;;;;25.27;11.63;;;;;;;-1.51;55.85;101551.13;4424256;32;34730;-77
2022/01/12 06:52:44;;;;;;;28.20;11.77;;;;;;;-1.48;55.66;101549.13;4424446;32;33221;-77
2022/01/12 06:55:12;;;;;;;25.23;11.73;;;;;;;-1.58;55.70;101549.72;4424091;32;33268;-77
2022/01/12 06:57:42;;;;;;;22.70;10.83;;;;;;;-1.60;55.90;101557.00;4437040;32;35017;-77
2022/01/12 07:00:10;;;;;;;24.10;11.57;;;;;;;-1.61;56.11;101557.97;4424359;32;34149;-77
2022/01/12 07:02:37;;;;;;;28.03;12.40;;;;;;;-1.35;55.11;101552.84;4421861;32;33382;-77
2022/01/12 07:05:06;;;;;;;30.17;12.20;;;;;;;-1.41;55.16;101561.28;4411210;32;32134;-77
2022/01/12 07:07:36;;;;;;;27.67;12.03;;;;;;;-1.39;55.15;101566.59;4436846;32;34585;-77
2022/01/12 07:10:04;;;;;;;23.40;11.70;;;;;;;-1.54;55.51;101556.66;4424134;32;34627;-77
2022/01/12 07:12:33;;;;;;;22.87;11.00;;;;;;;-1.45;55.28;101559.72;4436765;32;32767;-77
2022/01/12 07:15:01;;;;;;;25.27;12.67;;;;;;;-1.41;55.14;101563.09;4436618;32;33838;-77
2022/01/12 07:17:29;;;;;;;29.07;10.97;;;;;;;-1.44;55.28;101571.34;4437429;32;34324;-77
2022/01/12 07:20:08;;;;;;;23.03;11.33;;;;;;;-1.33;54.96;101569.81;4425712;32;33314;-77
2022/01/12 07:22:38;;;;;;;24.57;12.47;;;;;;;-1.41;55.30;101577.44;4426520;32;33420;-77
2022/01/12 07:25:07;;;;;;;27.53;12.10;;;;;;;-1.57;56.09;101586.44;4426036;32;32303;-77
2022/01/12 07:27:34;;;;;;;31.40;12.33;;;;;;;-1.34;55.41;101591.44;4426352;32;34425;-77
2022/01/12 07:30:03;;;;;;;29.07;12.17;;;;;;;-1.33;55.45;101588.66;4413575;32;34082;-77
2022/01/12 07:32:31;;;;;;;28.10;12.30;;;;;;;-1.16;54.97;101595.75;4426208;32;33501;-76
2022/01/12 07:34:58;;;;;;;25.40;12.43;;;;;;;-1.31;55.53;101602.03;4439148;32;34628;-77
2022/01/12 07:37:29;;;;;;;28.10;12.70;;;;;;;-1.29;55.62;101604.59;4426147;32;35257;-77
2022/01/12 07:39:57;;;;;;;27.90;12.93;;;;;;;-1.34;55.82;101607.59;4413827;32;34673;-77
2022/01/12 07:42:27;;;;;;;31.50;12.93;;;;;;;-1.14;55.28;101607.31;4426167;32;33331;-77
2022/01/12 07:45:01;;;;;;;29.17;13.00;;;;;;;-1.02;54.84;101597.66;4426086;32;34595;-77
2022/01/12 07:47:31;;;;;;;30.93;13.73;;;;;;;-1.16;55.06;101600.28;4426720;32;33534;-77
2022/01/12 07:50:00;;;;;;;28.37;13.20;;;;;;;-1.06;55.08;101601.47;4425416;32;34136;-77
2022/01/12 07:52:30;;;;;;;31.17;12.87;;;;;;;-1.15;55.09;101619.03;4408954;32;31912;-77
2022/01/12 07:54:58;;;;;;;28.10;12.03;;;;;;;-1.45;55.84;101618.09;4410976;32;33721;-77
2022/01/12 07:57:28;;;;;;;25.53;11.13;;;;;;;-1.41;55.79;101616.97;4410687;32;32877;-76
2022/01/12 07:59:58;;;;;;;23.63;11.17;;;;;;;-0.87;54.27;101618.34;4411021;32;33936;-76
2022/01/12 08:02:27;;;;;;;24.93;11.73;;;;;;;-1.39;56.31;101623.13;4410581;32;33294;-77
2022/01/12 08:04:55;;;;;;;22.70;10.30;;;;;;;-1.12;55.56;101623.37;4398260;32;32479;-77
2022/01/12 08:07:23;;;;;;;19.60;9.43;;;;;;;-0.83;54.91;101619.91;4397938;32;34320;-77
2022/01/12 08:09:54;;;;;;;21.83;10.00;;;;;;;-0.91;54.71;101618.59;4410533;32;32785;-77
2022/01/12 08:12:22;;;;;;;19.27;9.35;;;;;;;-0.62;54.31;101627.66;4398052;32;32323;-77
2022/01/12 08:14:50;;;;;;;20.27;10.20;;;;;;;-0.68;54.11;101626.22;4410596;32;33235;-76
2022/01/12 08:17:20;;;;;;;23.07;9.93;;;;;;;-1.02;54.65;101614.69;4410283;32;34057;-77
2022/01/12 08:19:48;;;;;;;23.30;10.07;;;;;;;-1.21;54.95;101627.47;4410789;32;33657;-76
2022/01/12 08:22:15;;;;;;;22.60;10.43;;;;;;;-0.93;54.52;101618.69;4423170;32;33608;-76
2022/01/12 08:24:43;;;;;;;23.07;10.17;;;;;;;-1.27;54.99;101622.41;4424406;32;34583;-76
2022/01/12 08:27:12;;;;;;;20.53;10.50;;;;;;;-1.68;56.16;101617.53;4423458;32;34313;-76
2022/01/12 08:29:40;;;;;;;40.20;19.20;;;;;;;-1.37;55.75;101634.69;4410304;32;32559;-76
2022/01/12 08:32:08;;;;;;;31.80;15.23;;;;;;;-1.02;54.81;101638.94;4410281;32;32450;-76
2022/01/12 08:34:38;;;;;;;25.13;11.50;;;;;;;-1.47;55.66;101644.22;4410913;32;33794;-76
2022/01/12 08:37:06;;;;;;;27.70;11.67;;;;;;;-1.58;56.47;101652.88;4428320;32;34430;-76
2022/01/12 08:39:34;;;;;;;26.33;11.40;;;;;;;-1.66;57.04;101657.81;4425555;32;32825;-76
2022/01/12 08:42:02;;;;;;;24.37;10.97;;;;;;;-1.36;57.25;101658.84;4413030;32;32867;-76
2022/01/12 08:44:34;;;;;;;30.67;13.67;;;;;;;-1.04;56.19;101658.84;4426010;32;33723;-76
2022/01/12 08:47:04;;;;;;;23.40;9.83;;;;;;;-1.00;56.05;101652.34;4438559;32;34604;-76
2022/01/12 08:49:31;;;;;;;22.53;10.13;;;;;;;-0.59;54.52;101641.84;4425499;32;32433;-76
2022/01/12 08:51:59;;;;;;;30.27;10.23;;;;;;;-0.74;54.57;101651.72;4425657;32;33463;-77
2022/01/12 08:54:29;;;;;;;27.57;11.57;;;;;;;-0.81;55.15;101644.06;4425993;32;34430;-76
2022/01/12 08:56:57;;;;;;;34.87;12.33;;;;;;;-0.77;55.33;101651.03;4438522;32;35242;-76
2022/01/12 08:59:25;;;;;;;24.30;10.30;;;;;;;-0.76;54.92;101647.37;4425463;32;34573;-77
2022/01/12 09:01:53;;;;;;;32.77;11.37;;;;;;;-0.65;55.10;101649.44;4438100;32;33216;-76
2022/01/12 09:04:22;;;;;;;27.63;11.77;;;;;;;-1.09;55.91;101653.72;4425698;32;33792;-76
2022/01/12 09:06:51;;;;;;;29.47;11.73;;;;;;;-0.79;55.56;101650.25;4413434;32;34395;-76
2022/01/12 09:09:19;;;;;;;24.60;10.40;;;;;;;-0.75;55.73;101639.19;4411300;32;33884;-76
2022/01/12 09:11:48;;;;;;;50.17;21.00;;;;;;;-0.83;55.29;101645.97;4398499;32;31923;-76
2022/01/12 09:14:15;;;;;;;37.00;14.63;;;;;;;-0.83;57.18;101635.19;4404745;32;32327;-76
2022/01/12 09:16:43;;;;;;;30.90;13.47;;;;;;;-0.49;56.26;101639.47;4422434;32;32872;-76
2022/01/12 09:19:12;;;;;;;22.67;11.13;;;;;;;-0.18;54.76;101636.69;4410636;32;33864;-76
2022/01/12 09:21:39;;;;;;;20.90;10.87;;;;;;;-0.27;54.66;101630.97;4398058;32;32034;-76
2022/01/12 09:24:07;;;;;;;23.43;11.07;;;;;;;-0.12;54.53;101644.41;4410289;32;33708;-77
2022/01/12 09:26:35;;;;;;;26.17;10.23;;;;;;;-0.08;54.80;101629.78;4410287;32;33930;-76
2022/01/12 09:29:02;;;;;;;24.67;10.47;;;;;;;0.12;53.96;101631.22;4407138;32;110088;-76
2022/01/12 09:31:30;;;;;;;19.97;10.87;;;;;;;0.33;53.46;101635.31;4410036;32;33412;-76
2022/01/12 09:33:58;;;;;;;18.67;9.80;;;;;;;-0.12;54.20;101644.41;4435332;32;33941;-76
2022/01/12 09:36:26;;;;;;;22.67;10.30;;;;;;;-0.19;54.38;101634.94;4409852;32;34380;-77
2022/01/12 09:38:54;;;;;;;23.13;10.53;;;;;;;0.13;53.62;101632.97;4409897;32;34006;-77
2022/01/12 09:41:25;;;;;;;18.75;9.70;;;;;;;0.12;53.77;101635.75;4408950;32;33579;-77
2022/01/12 09:43:57;;;;;;;21.87;9.52;;;;;;;0.26;53.67;101636.66;4421804;32;33978;-77
2022/01/12 09:46:28;;;;;;;21.57;9.60;;;;;;;0.30;53.09;101642.72;4410024;32;35414;-76
2022/01/12 09:48:59;;;;;;;28.03;10.63;;;;;;;0.48;52.25;101643.41;4409294;32;33410;-77
2022/01/12 09:51:29;;;;;;;22.08;9.98;;;;;;;0.30;53.03;101638.19;4422233;32;33160;-76
2022/01/12 09:53:58;;;;;;;21.20;10.15;;;;;;;0.36;53.32;101641.47;4409650;32;32008;-76
2022/01/12 09:56:30;;;;;;;31.03;12.80;;;;;;;0.57;52.72;101642.84;4423373;32;34102;-76
2022/01/12 09:59:00;;;;;;;20.25;9.65;;;;;;;0.45;53.64;101641.78;4422220;32;32426;-76
2022/01/12 10:01:36;;;;;;;25.40;10.97;;;;;;;0.20;53.21;101650.53;4395672;32;33377;-76
2022/01/12 10:04:12;;;;;;;19.73;10.25;;;;;;;0.62;53.03;101649.69;4406923;32;32130;-76
2022/01/12 10:06:42;;;;;;;22.87;10.40;;;;;;;0.56;52.93;101655.47;4420324;32;33998;-77
2022/01/12 10:09:12;;;;;;;21.13;9.97;;;;;;;0.24;53.13;101645.81;4396913;32;32312;-85
2022/01/12 10:11:52;;;;;;;25.77;11.93;;;;;;;0.57;52.45;101643.72;4409790;32;33618;-81
2022/01/12 10:14:23;;;;;;;26.70;12.30;;;;;;;1.05;58.91;101646.03;4409766;32;34441;-76
2022/01/12 10:16:55;;;;;;;34.50;14.50;;;;;;;0.99;54.52;101645.47;4409359;32;34441;-77
2022/01/12 10:19:28;;;;;;;24.77;11.93;;;;;;;0.49;53.44;101640.63;4409352;32;34289;-77
2022/01/12 10:21:58;;;;;;;24.63;11.82;;;;;;;0.49;53.54;101639.75;4409215;32;32843;-76
2022/01/12 10:24:27;;;;;;;25.37;11.73;;;;;;;0.94;52.15;101642.19;4409250;32;32539;-77
2022/01/12 10:26:56;;;;;;;26.53;11.93;;;;;;;0.85;52.76;101631.97;4409121;32;35384;-76
2022/01/12 10:29:32;;;;;;;24.58;11.18;;;;;;;1.13;52.05;101638.28;4409366;32;34974;-76
2022/01/12 10:32:03;;;;;;;27.47;12.10;;;;;;;1.18;51.64;101641.56;4421668;32;34095;-77
2022/01/12 10:34:42;;;;;;;26.17;10.10;;;;;;;1.01;52.01;101637.25;4409001;32;32883;-77
2022/01/12 10:37:11;;;;;;;;;;;;;;;0.92;51.26;101632.44;4400669;32;34593;-77
2022/01/12 10:39:47;;;;;;;23.87;10.50;;;;;;;1.44;50.70;101634.41;4409038;32;33060;-76
2022/01/12 10:42:44;;;;;;;21.95;11.10;;;;;;;1.20;50.77;101634.22;4396716;32;33275;-76
2022/01/12 10:45:12;;;;;;;23.45;10.43;;;;;;;1.51;49.65;101633.03;4405320;32;33702;-76
2022/01/12 10:47:42;;;;;;;24.37;10.63;;;;;;;0.85;50.03;101631.97;4407151;32;35302;-76
2022/01/12 10:50:10;;;;;;;21.80;9.97;;;;;;;1.08;49.87;101633.19;4408921;32;33396;-76
2022/01/12 10:52:49;;;;;;;22.80;10.20;;;;;;;0.99;50.10;101628.38;4409981;32;33440;-76
2022/01/12 10:55:17;;;;;;;25.67;10.82;;;;;;;1.37;49.71;101623.13;4410679;32;33775;-77
2022/01/12 10:57:45;;;;;;;28.90;11.00;;;;;;;1.55;48.82;101621.88;4411008;32;34676;-77
2022/01/12 11:00:21;;;;;;;24.10;12.10;;;;;;;1.52;49.50;101629.34;4423533;32;33854;-76
2022/01/12 11:02:57;;;;;;;27.13;11.48;;;;;;;1.58;49.72;101635.22;4410771;32;32788;-77
2022/01/12 11:05:27;;;;;;;26.52;11.75;;;;;;;1.84;49.18;101619.03;4410834;32;33962;-77
2022/01/12 11:07:56;;;;;;;24.77;11.48;;;;;;;1.87;48.24;101616.97;4410580;32;32951;-77
2022/01/12 11:10:27;;;;;;;26.45;10.73;;;;;;;1.82;48.07;101621.84;4423689;32;34002;-76
2022/01/12 11:12:54;;;;;;;28.20;11.63;;;;;;;1.94;47.76;101617.44;4411095;32;34189;-76
2022/01/12 11:15:22;;;;;;;20.37;10.63;;;;;;;2.11;47.75;101613.50;4410492;32;32290;-77
2022/01/12 11:17:53;;;;;;;23.60;10.13;;;;;;;1.56;47.74;101618.22;4410614;32;33858;-76
2022/01/12 11:20:26;;;;;;;23.30;9.98;;;;;;;2.06;46.90;101629.22;4410848;32;33855;-76
2022/01/12 11:23:11;;;;;;;27.08;11.65;;;;;;;2.19;46.62;101625.56;4410999;32;33207;-77
2022/01/12 11:25:51;;;;;;;21.50;10.13;;;;;;;1.98;46.68;101630.63;4411561;32;32289;-76
2022/01/12 11:28:24;;;;;;;23.77;11.50;;;;;;;2.10;46.38;101623.47;4411998;32;34683;-77
2022/01/12 11:30:53;;;;;;;24.45;11.57;;;;;;;2.05;46.51;101612.09;4411018;32;33844;-76
2022/01/12 11:33:34;;;;;;;27.75;10.85;;;;;;;2.24;46.86;101620.69;4425073;32;33243;-77
2022/01/12 11:36:02;;;;;;;20.85;9.70;;;;;;;2.28;46.71;101622.19;4411333;32;33240;-76
2022/01/12 11:38:35;;;;;;;23.55;11.02;;;;;;;2.23;46.16;101618.06;4410611;32;32739;-76
2022/01/12 11:41:16;;;;;;;23.67;10.05;;;;;;;2.29;46.17;101618.50;4398022;32;32457;-77
2022/01/12 11:44:05;;;;;;;24.37;11.40;;;;;;;2.53;45.99;101605.06;4430376;32;33093;-77
2022/01/12 11:46:41;;;;;;;26.10;11.45;;;;;;;2.52;46.50;101602.47;4408206;32;33661;-76
2022/01/12 11:49:12;;;;;;;24.58;11.00;;;;;;;2.71;46.33;101601.97;4410663;32;35263;-76
2022/01/12 11:51:41;;;;;;;28.15;11.90;;;;;;;2.36;46.84;101601.81;4410652;32;34634;-76
2022/01/12 11:54:11;;;;;;;27.15;13.45;;;;;;;2.59;46.68;101601.03;4398150;32;31893;-77
2022/01/12 11:57:00;;;;;;;17.55;7.80;;;;;;;2.76;46.78;101599.78;4398117;32;32995;-75
2022/01/12 11:59:49;;;;;;;35.83;15.35;;;;;;;3.13;61.30;101595.25;4395570;32;34449;-76
2022/01/12 12:02:19;;;;;;;25.37;12.32;;;;;;;3.20;50.72;101586.53;4407681;32;33899;-76
2022/01/12 12:04:57;;;;;;;25.90;12.63;;;;;;;2.91;47.08;101601.38;4395810;32;33344;-77
2022/01/12 12:07:28;;;;;;;26.17;13.13;;;;;;;2.52;46.86;101591.62;4392875;32;34316;-76
2022/01/12 12:09:57;;;;;;;30.85;15.27;;;;;;;2.53;47.48;101596.94;4395449;32;33003;-76
2022/01/12 12:12:34;;;;;;;36.20;18.08;;;;;;;2.68;47.22;101597.62;4394871;32;33613;-76
2022/01/12 12:15:08;;;;;;;50.10;23.50;;;;;;;2.83;48.17;101585.66;4379659;32;31891;-77
2022/01/12 12:17:38;;;;;;;35.38;15.48;;;;;;;2.73;47.40;101592.75;4390782;32;32144;-76
2022/01/12 12:20:08;;;;;;;29.52;15.25;;;;;;;2.38;47.72;101581.78;4395150;32;34570;-76
2022/01/12 12:22:41;;;;;;;29.73;14.05;;;;;;;2.61;47.13;101585.50;4407557;32;33753;-76
2022/01/12 12:25:14;;;;;;;28.33;13.82;;;;;;;2.47;46.68;101596.50;4392600;32;33351;-76
2022/01/12 12:27:45;;;;;;;28.92;14.23;;;;;;;2.60;46.84;101595.47;4393434;32;32270;-77
2022/01/12 12:30:15;;;;;;;32.47;15.48;;;;;;;2.91;60.19;101588.69;4395436;32;34384;-83
2022/01/12 12:32:48;;;;;;;40.90;18.58;;;;;;;2.86;49.34;101593.59;4395187;32;34620;-76
2022/01/12 12:35:31;;;;;;;41.97;18.02;;;;;;;3.23;54.83;101593.56;4391508;32;31721;-76
2022/01/12 12:38:04;;;;;;;33.63;16.10;;;;;;;3.28;47.81;101594.94;4392685;32;32372;-75
2022/01/12 12:40:40;;;;;;;30.80;15.70;;;;;;;2.93;46.77;101597.56;4395003;32;33855;-76
2022/01/12 12:43:18;;;;;;;32.28;14.73;;;;;;;2.89;46.21;101600.63;4395039;32;33109;-76
2022/01/12 12:45:54;;;;;;;36.08;16.15;;;;;;;2.47;46.76;101602.78;4407264;32;31716;-76
2022/01/12 12:48:33;;;;;;;25.80;14.10;;;;;;;2.44;46.58;101611.12;4407701;32;34047;-76